Turkey, Kentucky
Current Conditions -  °F | °C
As of 5:53 AM on Saturday 25 Oct 2014 (Local Time) from KJKL Reporting Station
Clear Clear  
Wind Chill: 43°   Ceiling: Unl
Heat Index: 43°   Visibility: 10mi
Dew Point: 40°   Wind: 0mph
Humidity: 89%   Direction: NA
Pressure: 30.06"   Gusts: NA
Location:  37.4818°N, 83.6652°W
Report Text: KJKL 250953Z AUTO 00000KT 10SM CLR 06/04 A3006 RMK AO2 SLP178 T00610044
Loading
Personal Weather Stations






























Interactive Weather Map
Tropical Storm Tracking
New forecast layout! Learn more

10-Day Weather Forecast

Advertisements
Track Severe Weather on mobile